Time;durP1;ratioP1;P1;durP2;ratioP2;P2;SDS_P1;SDS_P2;PMS_P1;PMS_P2;Temp;Humidity;BMP_temperature;BMP_pressure;BME280_temperature;BME280_humidity;BME280_pressure;Samples;Min_cycle;Max_cycle;Signal;HPM_P1;HPM_P2
2023/04/17 00:01:56;;;;;;;;;;;;;;;8.53;99.60;99103.75;135520;1278;164588;-60
2023/04/17 00:04:59;;;;;;;;;;;;;;;8.48;100.00;99101.55;135661;1278;22500;-60
2023/04/17 00:08:02;;;;;;;;;;;;;;;8.41;100.00;99096.64;135707;1278;22500;-60
2023/04/17 00:11:04;;;;;;;;;;;;;;;8.44;100.00;99095.14;135656;1278;22552;-60
2023/04/17 00:14:06;;;;;;;;;;;;;;;8.43;100.00;99092.54;135715;1278;22511;-60
2023/04/17 00:17:09;;;;;;;;;;;;;;;8.37;100.00;99092.48;135719;1260;22501;-60
2023/04/17 00:20:12;;;;;;;;;;;;;;;8.34;100.00;99094.88;135667;1278;22508;-60
2023/04/17 00:23:14;;;;;;;;;;;;;;;8.35;100.00;99094.14;135666;1278;22508;-60
2023/04/17 00:26:18;;;;;;;;;;;;;;;8.30;100.00;99094.73;135717;1278;22516;-59
2023/04/17 00:29:20;;;;;;;;;;;;;;;8.25;100.00;99093.59;135705;1278;22583;-60
2023/04/17 00:32:23;;;;;;;;;;;;;;;8.24;100.00;99094.34;135658;1278;22539;-60
2023/04/17 00:35:25;;;;;;;;;;;;;;;8.24;100.00;99091.70;135694;1278;22504;-59
2023/04/17 00:38:28;;;;;;;;;;;;;;;8.18;100.00;99090.07;135673;1261;22518;-59
2023/04/17 00:41:30;;;;;;;;;;;;;;;8.12;100.00;99088.09;135700;1260;24375;-60
2023/04/17 00:44:32;;;;;;;;;;;;;;;8.04;100.00;99090.91;135688;1278;22511;-59
2023/04/17 00:47:35;;;;;;;;;;;;;;;7.96;100.00;99089.66;135678;1278;22726;-60
2023/04/17 00:50:37;;;;;;;;;;;;;;;7.92;100.00;99087.95;135690;1278;22544;-60
2023/04/17 00:53:40;;;;;;;;;;;;;;;7.86;100.00;99090.13;135704;1278;22514;-59
2023/04/17 00:56:42;;;;;;;;;;;;;;;7.79;100.00;99089.41;135695;1269;22542;-60
2023/04/17 00:59:45;;;;;;;;;;;;;;;7.78;100.00;99087.20;135705;1278;22511;-60
2023/04/17 01:02:48;;;;;;;;;;;;;;;7.77;100.00;99086.33;135671;1278;22539;-60
2023/04/17 01:05:50;;;;;;;;;;;;;;;7.82;100.00;99090.13;135691;1260;22510;-59
2023/04/17 01:08:52;;;;;;;;;;;;;;;7.87;100.00;99092.53;135689;1278;24246;-59
2023/04/17 01:11:55;;;;;;;;;;;;;;;7.90;100.00;99092.59;135681;1278;22521;-60
2023/04/17 01:14:58;;;;;;;;;;;;;;;7.99;100.00;99091.47;135700;1278;22514;-59
2023/04/17 01:18:00;;;;;;;;;;;;;;;8.13;100.00;99091.00;135667;1278;22528;-60
2023/04/17 01:21:03;;;;;;;;;;;;;;;8.25;100.00;99097.91;135629;1262;24248;-59
2023/04/17 01:24:05;;;;;;;;;;;;;;;8.22;100.00;99097.87;135682;1257;22504;-60
2023/04/17 01:27:08;;;;;;;;;;;;;;;8.16;100.00;99096.25;135684;1278;22510;-60
2023/04/17 01:30:10;;;;;;;;;;;;;;;7.99;100.00;99100.66;135642;1278;23025;-60
2023/04/17 01:33:12;;;;;;;;;;;;;;;8.01;100.00;99094.48;135713;1278;23749;-60
2023/04/17 01:36:15;;;;;;;;;;;;;;;7.93;100.00;99094.33;135709;1278;22508;-60
2023/04/17 01:39:17;;;;;;;;;;;;;;;7.77;100.00;99098.17;135695;1278;22518;-59
2023/04/17 01:42:20;;;;;;;;;;;;;;;7.64;100.00;99096.52;135683;1278;22558;-60
2023/04/17 01:45:22;;;;;;;;;;;;;;;7.50;100.00;99096.63;135671;1278;22519;-59
2023/04/17 01:48:25;;;;;;;;;;;;;;;7.40;100.00;99102.09;135710;1261;24228;-60
2023/04/17 01:51:27;;;;;;;;;;;;;;;7.37;100.00;99100.85;135658;1260;22624;-59
2023/04/17 01:54:30;;;;;;;;;;;;;;;7.18;100.00;99101.10;135656;1278;22517;-59
2023/04/17 01:57:32;;;;;;;;;;;;;;;7.04;100.00;99102.20;135661;1261;24221;-60
2023/04/17 02:00:35;;;;;;;;;;;;;;;7.01;100.00;99102.38;135659;1278;22547;-60
2023/04/17 02:03:37;;;;;;;;;;;;;;;6.90;100.00;99105.23;135693;1278;25328;-60
2023/04/17 02:06:40;;;;;;;;;;;;;;;6.82;100.00;99108.86;135709;1278;22538;-60
2023/04/17 02:09:42;;;;;;;;;;;;;;;6.74;100.00;99115.10;135693;1278;22550;-60
2023/04/17 02:12:44;;;;;;;;;;;;;;;6.65;100.00;99123.14;135683;1278;22539;-60
2023/04/17 02:15:47;;;;;;;;;;;;;;;6.59;100.00;99123.37;135676;1278;22508;-60
2023/04/17 02:18:49;;;;;;;;;;;;;;;6.58;100.00;99121.63;135693;1261;22518;-60
2023/04/17 02:21:52;;;;;;;;;;;;;;;6.49;100.00;99115.94;135678;1278;22513;-60
2023/04/17 02:24:54;;;;;;;;;;;;;;;6.43;100.00;99117.03;135658;1278;25233;-59
2023/04/17 02:27:56;;;;;;;;;;;;;;;6.46;100.00;99117.11;135722;1278;22508;-59
2023/04/17 02:30:59;;;;;;;;;;;;;;;6.34;100.00;99115.30;135635;1278;22511;-60
2023/04/17 02:34:02;;;;;;;;;;;;;;;6.23;100.00;99113.48;135657;1278;22513;-60
2023/04/17 02:37:04;;;;;;;;;;;;;;;6.12;100.00;99111.61;135713;1277;22544;-60
2023/04/17 02:40:07;;;;;;;;;;;;;;;6.14;100.00;99112.44;135644;1278;22505;-60
2023/04/17 02:43:09;;;;;;;;;;;;;;;6.13;100.00;99108.29;135645;1278;22537;-60
2023/04/17 02:46:11;;;;;;;;;;;;;;;6.26;100.00;99108.66;135711;1278;25386;-60
2023/04/17 02:49:14;;;;;;;;;;;;;;;6.39;100.00;99112.69;135684;1260;22501;-60
2023/04/17 02:52:16;;;;;;;;;;;;;;;6.41;100.00;99111.39;135685;1278;25412;-60
2023/04/17 02:55:19;;;;;;;;;;;;;;;6.51;100.00;99109.09;135664;1278;25467;-60
2023/04/17 02:58:22;;;;;;;;;;;;;;;6.58;100.00;99114.70;135672;1278;24582;-59
2023/04/17 03:01:25;;;;;;;;;;;;;;;6.56;100.00;99115.31;135696;1268;22503;-59
2023/04/17 03:04:27;;;;;;;;;;;;;;;6.54;100.00;99123.02;135709;1278;22513;-59
2023/04/17 03:07:30;;;;;;;;;;;;;;;6.52;100.00;99122.40;135688;1278;26010;-59
2023/04/17 03:10:32;;;;;;;;;;;;;;;6.40;100.00;99126.70;135685;1278;22539;-59
2023/04/17 03:13:35;;;;;;;;;;;;;;;6.37;100.00;99127.70;135709;1278;22543;-59
2023/04/17 03:16:37;;;;;;;;;;;;;;;6.33;100.00;99130.29;135705;1261;22522;-59
2023/04/17 03:19:40;;;;;;;;;;;;;;;6.23;100.00;99123.55;135707;1278;22511;-59
2023/04/17 03:22:42;;;;;;;;;;;;;;;6.07;100.00;99126.38;135704;1278;22511;-59
2023/04/17 03:25:45;;;;;;;;;;;;;;;6.02;100.00;99119.81;135623;1278;22509;-59
2023/04/17 03:28:47;;;;;;;;;;;;;;;6.04;100.00;99119.92;135699;1278;24223;-59
2023/04/17 03:31:49;;;;;;;;;;;;;;;6.08;100.00;99117.16;135684;1278;22517;-59
2023/04/17 03:34:52;;;;;;;;;;;;;;;6.02;100.00;99122.58;135728;1278;25288;-60
2023/04/17 03:37:54;;;;;;;;;;;;;;;5.89;100.00;99126.51;135640;1278;22519;-59
2023/04/17 03:40:56;;;;;;;;;;;;;;;5.73;100.00;99136.63;135666;1278;22502;-59
2023/04/17 03:43:59;;;;;;;;;;;;;;;5.74;100.00;99145.98;135716;1278;22500;-59
2023/04/17 03:47:01;;;;;;;;;;;;;;;5.93;100.00;99150.31;135704;1268;24219;-60
2023/04/17 03:50:04;;;;;;;;;;;;;;;6.08;100.00;99151.71;135712;1278;22500;-60
2023/04/17 03:53:06;;;;;;;;;;;;;;;6.27;100.00;99154.30;135694;1278;22550;-60
2023/04/17 03:56:08;;;;;;;;;;;;;;;6.48;100.00;99160.77;135718;1278;22575;-60
2023/04/17 03:59:11;;;;;;;;;;;;;;;6.65;100.00;99158.94;135699;1278;22510;-60
2023/04/17 04:02:13;;;;;;;;;;;;;;;6.85;100.00;99165.45;135687;1278;22558;-60
2023/04/17 04:05:15;;;;;;;;;;;;;;;6.97;100.00;99166.70;135679;1278;23762;-59
2023/04/17 04:08:18;;;;;;;;;;;;;;;7.04;100.00;99161.89;135644;1278;22540;-59
2023/04/17 04:11:20;;;;;;;;;;;;;;;7.08;100.00;99164.52;135697;1278;22613;-59
2023/04/17 04:14:23;;;;;;;;;;;;;;;7.25;100.00;99165.70;135696;1278;25224;-59
2023/04/17 04:17:25;;;;;;;;;;;;;;;7.44;100.00;99167.52;135690;1278;22778;-59
2023/04/17 04:20:27;;;;;;;;;;;;;;;7.65;100.00;99159.50;135659;1278;24247;-59
2023/04/17 04:23:30;;;;;;;;;;;;;;;7.72;100.00;99158.14;135697;1278;22539;-59
2023/04/17 04:26:33;;;;;;;;;;;;;;;7.75;100.00;99160.44;135679;1278;22507;-59
2023/04/17 04:29:36;;;;;;;;;;;;;;;7.86;100.00;99164.65;135717;1278;22527;-61
2023/04/17 04:32:39;;;;;;;;;;;;;;;7.92;100.00;99165.77;135688;1278;25471;-61
2023/04/17 04:35:46;;;;;;;;;;;;;;;8.07;100.00;99168.09;135643;1278;22529;-61
2023/04/17 04:38:49;;;;;;;;;;;;;;;8.17;100.00;99166.06;135674;1278;22520;-61
2023/04/17 04:41:52;;;;;;;;;;;;;;;8.25;100.00;99170.05;135682;1278;22508;-59
2023/04/17 04:44:54;;;;;;;;;;;;;;;8.31;100.00;99176.05;135673;1278;23897;-59
2023/04/17 04:47:56;;;;;;;;;;;;;;;8.42;100.00;99175.92;135687;1278;22503;-60
2023/04/17 04:50:59;;;;;;;;;;;;;;;8.59;100.00;99174.45;135657;1278;22527;-59
2023/04/17 04:54:01;;;;;;;;;;;;;;;8.71;100.00;99173.52;135598;1278;22511;-60
2023/04/17 04:57:04;;;;;;;;;;;;;;;8.86;100.00;99177.67;135697;1278;25982;-60
2023/04/17 05:00:07;;;;;;;;;;;;;;;9.07;100.00;99181.20;135686;1259;22603;-59
2023/04/17 05:03:10;;;;;;;;;;;;;;;9.21;100.00;99180.17;135682;1278;22525;-59
2023/04/17 05:06:12;;;;;;;;;;;;;;;9.27;100.00;99176.20;135713;1278;22975;-60
2023/04/17 05:09:15;;;;;;;;;;;;;;;9.36;100.00;99180.32;135705;1278;25256;-59
2023/04/17 05:12:17;;;;;;;;;;;;;;;9.43;100.00;99181.37;135690;1259;22518;-60
2023/04/17 05:15:19;;;;;;;;;;;;;;;9.44;100.00;99189.35;135720;1278;22505;-59
2023/04/17 05:18:22;;;;;;;;;;;;;;;9.53;100.00;99188.71;135695;1275;22536;-60
2023/04/17 05:21:26;;;;;;;;;;;;;;;9.66;100.00;99188.73;135683;1278;25383;-59
2023/04/17 05:24:28;;;;;;;;;;;;;;;9.88;100.00;99185.50;135714;1278;22528;-60
2023/04/17 05:27:31;;;;;;;;;;;;;;;9.95;100.00;99188.45;135705;1278;22627;-59
2023/04/17 05:30:33;;;;;;;;;;;;;;;10.03;100.00;99184.56;135697;1278;24259;-59
2023/04/17 05:33:36;;;;;;;;;;;;;;;10.17;100.00;99185.53;135697;1278;25428;-60
2023/04/17 05:36:38;;;;;;;;;;;;;;;10.29;100.00;99190.66;135684;1278;22514;-60
2023/04/17 05:39:40;;;;;;;;;;;;;;;10.38;100.00;99187.77;135707;1278;25245;-60
2023/04/17 05:42:43;;;;;;;;;;;;;;;10.49;100.00;99192.45;135665;1278;22510;-60
2023/04/17 05:45:46;;;;;;;;;;;;;;;10.53;100.00;99191.70;135677;1278;22589;-60
2023/04/17 05:48:48;;;;;;;;;;;;;;;10.55;100.00;99194.19;135632;1278;22508;-60
2023/04/17 05:51:51;;;;;;;;;;;;;;;10.68;100.00;99191.52;135667;1278;22513;-61
2023/04/17 05:54:53;;;;;;;;;;;;;;;10.80;100.00;99197.58;135692;1268;22501;-61
2023/04/17 05:57:56;;;;;;;;;;;;;;;10.95;100.00;99195.11;135707;1259;22507;-60
2023/04/17 06:00:58;;;;;;;;;;;;;;;11.11;100.00;99191.77;135693;1278;22512;-61
2023/04/17 06:04:00;;;;;;;;;;;;;;;11.30;100.00;99189.08;135654;1278;22513;-61
2023/04/17 06:07:04;;;;;;;;;;;;;;;11.37;100.00;99192.02;135699;1278;22500;-60
2023/04/17 06:10:08;;;;;;;;;;;;;;;11.53;100.00;99191.26;135693;1259;22501;-60
2023/04/17 06:13:10;;;;;;;;;;;;;;;11.64;100.00;99191.01;135730;1278;22524;-60
2023/04/17 06:16:12;;;;;;;;;;;;;;;11.70;100.00;99190.65;135692;1278;22508;-60
2023/04/17 06:19:15;;;;;;;;;;;;;;;11.78;100.00;99182.96;135697;1278;25405;-61
2023/04/17 06:22:17;;;;;;;;;;;;;;;11.85;100.00;99185.00;135658;1278;23782;-60
2023/04/17 06:25:20;;;;;;;;;;;;;;;11.96;100.00;99184.86;135704;1278;22500;-60
2023/04/17 06:28:22;;;;;;;;;;;;;;;12.08;100.00;99191.68;135688;1278;25406;-60
2023/04/17 06:31:25;;;;;;;;;;;;;;;12.08;100.00;99194.34;135671;1278;22556;-60
2023/04/17 06:34:27;;;;;;;;;;;;;;;12.07;100.00;99194.90;135676;1278;22504;-60
2023/04/17 06:37:29;;;;;;;;;;;;;;;12.01;100.00;99195.27;135643;1278;22495;-60
2023/04/17 06:40:32;;;;;;;;;;;;;;;12.15;100.00;99199.13;135692;1278;22512;-60
2023/04/17 06:43:34;;;;;;;;;;;;;;;12.33;100.00;99196.98;135664;1278;22519;-60
2023/04/17 06:46:37;;;;;;;;;;;;;;;12.59;100.00;99199.57;135646;1259;22517;-59
2023/04/17 06:49:39;;;;;;;;;;;;;;;12.93;100.00;99204.78;135671;1259;22524;-60
2023/04/17 06:52:41;;;;;;;;;;;;;;;12.96;100.00;99204.58;135679;1278;22521;-60
2023/04/17 06:55:44;;;;;;;;;;;;;;;12.83;100.00;99206.34;135679;1262;24369;-60
2023/04/17 06:58:46;;;;;;;;;;;;;;;12.93;100.00;99206.56;135642;1278;22516;-60
2023/04/17 07:01:49;;;;;;;;;;;;;;;12.94;100.00;99212.80;135648;1278;25272;-60
2023/04/17 07:04:52;;;;;;;;;;;;;;;13.04;100.00;99219.69;135693;1278;22514;-60
2023/04/17 07:07:54;;;;;;;;;;;;;;;13.02;100.00;99220.91;135671;1278;22500;-60
2023/04/17 07:10:56;;;;;;;;;;;;;;;12.88;100.00;99221.80;135671;1278;22635;-61
2023/04/17 07:13:59;;;;;;;;;;;;;;;13.03;100.00;99220.11;135622;1278;22523;-60
2023/04/17 07:17:03;;;;;;;;;;;;;;;13.12;100.00;99224.81;135663;1259;22511;-60
2023/04/17 07:20:06;;;;;;;;;;;;;;;13.20;100.00;99223.39;135661;1278;22511;-60
2023/04/17 07:23:08;;;;;;;;;;;;;;;13.42;100.00;99225.15;135673;1278;22501;-60
2023/04/17 07:26:10;;;;;;;;;;;;;;;13.50;100.00;99228.31;135653;1278;22530;-60
2023/04/17 07:29:13;;;;;;;;;;;;;;;13.69;100.00;99226.21;135655;1278;22516;-60
2023/04/17 07:32:15;;;;;;;;;;;;;;;14.00;100.00;99226.72;135673;1278;22505;-60
2023/04/17 07:35:18;;;;;;;;;;;;;;;14.10;100.00;99230.04;135642;1278;24928;-60
2023/04/17 07:38:20;;;;;;;;;;;;;;;14.60;99.97;99229.63;135678;1278;22527;-60
2023/04/17 07:41:23;;;;;;;;;;;;;;;14.94;98.51;99226.51;135669;1278;25240;-60
2023/04/17 07:44:25;;;;;;;;;;;;;;;15.04;93.37;99231.38;135635;1278;25451;-60
2023/04/17 07:47:27;;;;;;;;;;;;;;;14.91;94.79;99237.09;135672;1267;22511;-60
2023/04/17 07:50:30;;;;;;;;;;;;;;;14.88;93.62;99236.91;135651;1278;22653;-60
2023/04/17 07:53:34;;;;;;;;;;;;;;;14.73;93.39;99237.35;135633;1278;22514;-60
2023/04/17 07:56:37;;;;;;;;;;;;;;;15.00;95.22;99240.98;135634;1278;22504;-60
2023/04/17 07:59:39;;;;;;;;;;;;;;;14.98;91.07;99239.77;135631;1278;22509;-60
2023/04/17 08:02:42;;;;;;;;;;;;;;;14.71;92.68;99238.34;135600;1278;22597;-60
2023/04/17 08:05:44;;;;;;;;;;;;;;;14.83;92.55;99244.52;135655;1278;22517;-60
2023/04/17 08:08:47;;;;;;;;;;;;;;;14.95;94.19;99242.98;135673;1278;25310;-60
2023/04/17 08:11:49;;;;;;;;;;;;;;;15.14;91.84;99248.10;135628;1270;22504;-60
2023/04/17 08:14:52;;;;;;;;;;;;;;;15.48;91.20;99246.46;135672;1259;22528;-60
2023/04/17 08:17:55;;;;;;;;;;;;;;;15.85;89.30;99244.84;135648;1278;22642;-60
2023/04/17 08:20:58;;;;;;;;;;;;;;;16.04;86.86;99253.09;135648;1278;22516;-60
2023/04/17 08:24:00;;;;;;;;;;;;;;;15.68;84.81;99256.29;135667;1278;22531;-60
2023/04/17 08:27:04;;;;;;;;;;;;;;;15.42;87.18;99252.91;135653;1278;22607;-60
2023/04/17 08:30:06;;;;;;;;;;;;;;;15.52;87.56;99256.22;135599;1278;25258;-60
2023/04/17 08:33:09;;;;;;;;;;;;;;;15.57;86.23;99254.61;135606;1278;22637;-60
2023/04/17 08:36:12;;;;;;;;;;;;;;;15.56;86.53;99255.25;135596;1278;22512;-60
2023/04/17 08:39:15;;;;;;;;;;;;;;;15.56;86.95;99257.73;135561;1278;25227;-60
2023/04/17 08:42:17;;;;;;;;;;;;;;;15.64;86.92;99263.44;135646;1278;25948;-60
2023/04/17 08:45:21;;;;;;;;;;;;;;;15.81;86.92;99258.86;135631;1278;22523;-60
2023/04/17 08:48:24;;;;;;;;;;;;;;;16.25;86.82;99254.84;135642;1278;25344;-60
2023/04/17 08:51:26;;;;;;;;;;;;;;;16.75;84.14;99254.22;135600;1278;22508;-61
2023/04/17 08:54:29;;;;;;;;;;;;;;;17.06;82.21;99249.13;135614;1278;22668;-60
2023/04/17 08:57:31;;;;;;;;;;;;;;;16.91;80.83;99255.50;135602;1278;25340;-60
2023/04/17 09:00:34;;;;;;;;;;;;;;;16.95;81.73;99247.21;135567;1278;24391;-60
2023/04/17 09:03:37;;;;;;;;;;;;;;;16.94;80.01;99252.96;135622;1278;25224;-60
2023/04/17 09:06:39;;;;;;;;;;;;;;;16.59;80.12;99250.55;135613;1278;22524;-60
2023/04/17 09:09:41;;;;;;;;;;;;;;;16.31;80.80;99251.16;135625;1278;22500;-61
2023/04/17 09:12:44;;;;;;;;;;;;;;;16.05;80.89;99252.66;135635;1262;22746;-60
2023/04/17 09:15:46;;;;;;;;;;;;;;;15.88;83.49;99255.48;135529;1269;24228;-61
2023/04/17 09:18:49;;;;;;;;;;;;;;;15.67;83.99;99258.67;135595;1278;22591;-60
2023/04/17 09:21:51;;;;;;;;;;;;;;;15.45;85.08;99260.62;135610;1278;26609;-61
2023/04/17 09:24:53;;;;;;;;;;;;;;;15.32;86.97;99260.54;135598;1278;22522;-61
2023/04/17 09:27:56;;;;;;;;;;;;;;;15.21;87.04;99262.20;135604;1278;22589;-60
2023/04/17 09:30:58;;;;;;;;;;;;;;;15.00;89.70;99263.77;135556;1278;22498;-61
2023/04/17 09:34:00;;;;;;;;;;;;;;;14.91;91.00;99264.92;135610;1259;22519;-60
2023/04/17 09:37:03;;;;;;;;;;;;;;;14.90;88.75;99264.98;135578;1278;25297;-60
2023/04/17 09:40:08;;;;;;;;;;;;;;;15.12;88.82;99271.30;135638;1267;22517;-61
2023/04/17 09:43:11;;;;;;;;;;;;;;;15.44;86.52;99272.52;135615;1278;22515;-61
2023/04/17 09:46:15;;;;;;;;;;;;;;;15.69;84.35;99273.14;135551;1278;25357;-61
2023/04/17 09:49:18;;;;;;;;;;;;;;;15.77;83.44;99272.55;135629;1278;22502;-59
2023/04/17 09:52:22;;;;;;;;;;;;;;;15.80;81.29;99270.06;135663;1278;22519;-61
2023/04/17 09:55:25;;;;;;;;;;;;;;;15.64;81.97;99272.30;135660;1278;22504;-61
2023/04/17 09:58:27;;;;;;;;;;;;;;;15.58;83.66;99274.42;135625;1278;22512;-61
2023/04/17 10:01:30;;;;;;;;;;;;;;;15.42;82.51;99272.11;135560;1278;22539;-60
2023/04/17 10:04:32;;;;;;;;;;;;;;;15.26;83.67;99275.59;135590;1278;22507;-60
2023/04/17 10:07:35;;;;;;;;;;;;;;;15.12;86.62;99277.85;135573;1278;22505;-61
2023/04/17 10:10:38;;;;;;;;;;;;;;;15.05;87.69;99277.41;135617;1278;25349;-61
2023/04/17 10:13:41;;;;;;;;;;;;;;;15.02;89.55;99275.71;135605;1278;22604;-60
2023/04/17 10:16:44;;;;;;;;;;;;;;;14.82;88.68;99271.84;135578;1278;22504;-60
2023/04/17 10:19:46;;;;;;;;;;;;;;;14.64;90.84;99275.95;135617;1278;22496;-60
2023/04/17 10:22:53;;;;;;;;;;;;;;;14.62;93.02;99275.73;135580;1278;22504;-60
2023/04/17 10:25:55;;;;;;;;;;;;;;;14.55;93.56;99276.87;135658;1278;22500;-60
2023/04/17 10:28:58;;;;;;;;;;;;;;;14.71;93.99;99273.73;135575;1278;22650;-60
2023/04/17 10:32:00;;;;;;;;;;;;;;;14.87;93.81;99272.75;135591;1262;24253;-60
2023/04/17 10:35:03;;;;;;;;;;;;;;;14.91;93.56;99269.46;135581;1266;22519;-60
2023/04/17 10:38:05;;;;;;;;;;;;;;;15.05;93.83;99265.48;135624;1278;22523;-60
2023/04/17 10:41:10;;;;;;;;;;;;;;;15.09;92.63;99270.14;135625;1278;22502;-60
2023/04/17 10:44:12;;;;;;;;;;;;;;;15.08;93.44;99269.31;135622;1278;22515;-60
2023/04/17 10:47:14;;;;;;;;;;;;;;;15.00;93.76;99266.52;135628;1278;24257;-60
2023/04/17 10:50:17;;;;;;;;;;;;;;;14.82;96.27;99267.67;135578;1260;23099;-60
2023/04/17 10:53:19;;;;;;;;;;;;;;;14.83;95.87;99263.55;135596;1278;22520;-60
2023/04/17 10:56:21;;;;;;;;;;;;;;;14.82;95.67;99260.06;135617;1259;22456;-60
2023/04/17 10:59:28;;;;;;;;;;;;;;;14.85;94.96;99259.18;135633;1278;22520;-61
2023/04/17 11:02:31;;;;;;;;;;;;;;;14.88;97.43;99258.77;135615;1278;22527;-60
2023/04/17 11:05:34;;;;;;;;;;;;;;;15.35;95.70;99258.02;135623;1278;22506;-60
2023/04/17 11:08:36;;;;;;;;;;;;;;;15.88;93.62;99258.83;135599;1278;22511;-60
2023/04/17 11:11:39;;;;;;;;;;;;;;;16.05;87.39;99266.94;135611;1278;22530;-60
2023/04/17 11:14:42;;;;;;;;;;;;;;;16.00;89.38;99265.00;135554;1263;22547;-60
2023/04/17 11:17:45;;;;;;;;;;;;;;;16.05;87.42;99265.88;135610;1278;22523;-60
2023/04/17 11:20:48;;;;;;;;;;;;;;;16.28;86.41;99272.39;135614;1278;22531;-60
2023/04/17 11:23:51;;;;;;;;;;;;;;;16.42;82.51;99272.71;135573;1278;22634;-60
2023/04/17 11:26:53;;;;;;;;;;;;;;;16.60;84.72;99273.38;135578;1278;22553;-60
2023/04/17 11:29:56;;;;;;;;;;;;;;;16.96;83.05;99271.32;135600;1278;22555;-60
2023/04/17 11:32:58;;;;;;;;;;;;;;;17.41;80.00;99269.98;135623;1278;24279;-60
2023/04/17 11:36:01;;;;;;;;;;;;;;;17.40;77.63;99268.52;135602;1278;22601;-60
2023/04/17 11:39:03;;;;;;;;;;;;;;;17.42;78.03;99267.79;135588;1278;22509;-61
2023/04/17 11:42:06;;;;;;;;;;;;;;;17.20;75.38;99267.28;135591;1278;22655;-60
2023/04/17 11:45:08;;;;;;;;;;;;;;;16.89;75.55;99267.93;135605;1278;22512;-61
2023/04/17 11:48:11;;;;;;;;;;;;;;;16.75;76.10;99270.30;135584;1278;22547;-61
2023/04/17 11:51:14;;;;;;;;;;;;;;;16.51;75.54;99272.59;135576;1278;25493;-60
2023/04/17 11:54:16;;;;;;;;;;;;;;;16.46;74.48;99267.31;135602;1278;22517;-60
2023/04/17 11:57:18;;;;;;;;;;;;;;;16.53;74.49;99267.77;135587;1278;22508;-60
2023/04/17 12:00:26;;;;;;;;;;;;;;;16.72;72.64;99267.77;135598;1267;26071;-60
2023/04/17 12:03:28;;;;;;;;;;;;;;;16.64;72.79;99267.14;135494;1278;25421;-60
2023/04/17 12:06:31;;;;;;;;;;;;;;;16.52;73.87;99272.98;135641;1278;22532;-60
2023/04/17 12:09:33;;;;;;;;;;;;;;;16.36;72.54;99273.02;135573;1278;22502;-60
2023/04/17 12:12:36;;;;;;;;;;;;;;;16.26;74.39;99276.06;135591;1277;22512;-60
2023/04/17 12:15:40;;;;;;;;;;;;;;;16.34;72.11;99277.21;135588;1278;22535;-60
2023/04/17 12:18:43;;;;;;;;;;;;;;;16.42;72.02;99273.60;135576;1278;22513;-60
2023/04/17 12:21:46;;;;;;;;;;;;;;;16.34;71.54;99280.21;135598;1278;22505;-60
2023/04/17 12:24:49;;;;;;;;;;;;;;;16.13;72.35;99282.55;135630;1278;22504;-60
2023/04/17 12:27:51;;;;;;;;;;;;;;;16.04;72.85;99281.08;135590;1278;22504;-60
2023/04/17 12:30:54;;;;;;;;;;;;;;;15.91;73.39;99281.89;135574;1278;22516;-61
2023/04/17 12:33:56;;;;;;;;;;;;;;;15.83;73.76;99285.91;135572;1278;22514;-60
2023/04/17 12:51:36;;;;;;;;;;;;;;;15.74;75.67;99275.94;135571;1278;22525;-61
2023/04/17 12:54:39;;;;;;;;;;;;;;;15.83;74.76;99279.73;135628;1278;22570;-61
2023/04/17 12:57:42;;;;;;;;;;;;;;;15.66;74.30;99275.85;135551;1266;23449;-61
2023/04/17 13:00:44;;;;;;;;;;;;;;;15.76;75.13;99277.05;135612;1278;25329;-61
2023/04/17 13:03:47;;;;;;;;;;;;;;;15.85;74.52;99269.67;135653;1278;22981;-61
2023/04/17 13:06:50;;;;;;;;;;;;;;;15.96;74.72;99271.48;135577;1278;24400;-60
2023/04/17 13:09:52;;;;;;;;;;;;;;;15.95;73.04;99266.27;135625;1270;22514;-60
2023/04/17 13:12:55;;;;;;;;;;;;;;;15.95;73.05;99264.89;135584;1278;25458;-60
2023/04/17 13:15:57;;;;;;;;;;;;;;;15.94;73.18;99260.50;135635;1278;22524;-60
2023/04/17 13:19:00;;;;;;;;;;;;;;;15.91;73.40;99256.52;135617;1278;22522;-60
2023/04/17 13:22:02;;;;;;;;;;;;;;;15.97;72.84;99259.95;135585;1278;22580;-60
2023/04/17 13:25:05;;;;;;;;;;;;;;;15.99;72.27;99262.46;135617;1278;22501;-60
2023/04/17 13:28:07;;;;;;;;;;;;;;;15.88;73.53;99264.14;135594;1278;22511;-60
2023/04/17 13:31:10;;;;;;;;;;;;;;;16.01;74.60;99255.41;135556;1278;22561;-60
2023/04/17 13:34:13;;;;;;;;;;;;;;;16.22;72.76;99259.10;135589;1270;24220;-60
2023/04/17 13:37:15;;;;;;;;;;;;;;;16.22;71.38;99250.48;135610;1269;23941;-61
2023/04/17 13:40:18;;;;;;;;;;;;;;;16.31;71.34;99252.08;135630;1278;24124;-60
2023/04/17 13:43:20;;;;;;;;;;;;;;;16.34;71.16;99246.66;135587;1278;25256;-61
2023/04/17 13:46:23;;;;;;;;;;;;;;;16.42;70.97;99251.89;135633;1278;22567;-61
2023/04/17 13:49:26;;;;;;;;;;;;;;;16.33;70.73;99252.77;135584;1278;25293;-61
2023/04/17 13:52:28;;;;;;;;;;;;;;;16.19;71.44;99254.00;135620;1260;22514;-60
2023/04/17 13:55:30;;;;;;;;;;;;;;;16.05;71.67;99255.61;135597;1278;22514;-61
2023/04/17 13:58:33;;;;;;;;;;;;;;;15.95;71.24;99256.17;135634;1257;22518;-60
2023/04/17 14:01:35;;;;;;;;;;;;;;;15.81;72.19;99257.45;135566;1278;22515;-61
2023/04/17 14:04:38;;;;;;;;;;;;;;;15.54;73.45;99260.83;135584;1278;22531;-60
2023/04/17 14:07:40;;;;;;;;;;;;;;;15.26;76.40;99260.80;135612;1278;22532;-61
2023/04/17 14:10:43;;;;;;;;;;;;;;;15.09;78.63;99265.23;135625;1278;22578;-60
2023/04/17 14:13:45;;;;;;;;;;;;;;;14.94;81.03;99267.37;135694;1278;22511;-60
2023/04/17 14:16:49;;;;;;;;;;;;;;;14.87;82.43;99272.60;135656;1278;22529;-60
2023/04/17 14:19:52;;;;;;;;;;;;;;;14.85;83.69;99271.70;135625;1278;22516;-60
2023/04/17 14:22:54;;;;;;;;;;;;;;;14.76;85.73;99268.98;135607;1278;22558;-60
2023/04/17 14:25:57;;;;;;;;;;;;;;;14.62;88.91;99262.70;135627;1278;24176;-61
2023/04/17 14:29:00;;;;;;;;;;;;;;;14.69;88.64;99263.48;135687;1278;22514;-60
2023/04/17 14:32:02;;;;;;;;;;;;;;;14.84;88.70;99263.48;135628;1278;22511;-61
2023/04/17 14:35:05;;;;;;;;;;;;;;;14.81;88.96;99260.84;135635;1278;22515;-60
2023/04/17 14:38:07;;;;;;;;;;;;;;;14.79;89.27;99259.92;135651;1278;22543;-60
2023/04/17 14:41:10;;;;;;;;;;;;;;;14.66;90.10;99264.05;135646;1278;22766;-60
2023/04/17 14:44:15;;;;;;;;;;;;;;;14.46;91.85;99266.11;135634;1278;22601;-60
2023/04/17 14:47:18;;;;;;;;;;;;;;;14.35;93.57;99266.34;135589;1278;25010;-62
2023/04/17 14:50:20;;;;;;;;;;;;;;;14.31;95.92;99261.16;135581;1278;22557;-62
2023/04/17 14:53:23;;;;;;;;;;;;;;;14.25;96.72;99264.39;135607;1265;24282;-61
2023/04/17 14:56:25;;;;;;;;;;;;;;;14.26;97.55;99260.61;135656;1278;22524;-61
2023/04/17 14:59:27;;;;;;;;;;;;;;;14.30;97.23;99259.85;135603;1271;24339;-61
2023/04/17 15:02:36;;;;;;;;;;;;;;;14.25;99.35;99257.73;135616;1278;22517;-61
2023/04/17 15:05:39;;;;;;;;;;;;;;;14.26;99.86;99256.91;135674;1278;22507;-61
2023/04/17 15:08:41;;;;;;;;;;;;;;;14.19;100.00;99260.23;135682;1278;22532;-61
2023/04/17 15:11:45;;;;;;;;;;;;;;;14.20;100.00;99259.98;135645;1278;22509;-60
2023/04/17 15:14:48;;;;;;;;;;;;;;;14.21;99.97;99263.25;135630;1265;24216;-60
2023/04/17 15:17:50;;;;;;;;;;;;;;;14.05;99.36;99262.92;135674;1278;22534;-59
2023/04/17 15:20:53;;;;;;;;;;;;;;;13.96;99.40;99264.45;135615;1278;22539;-60
2023/04/17 15:23:55;;;;;;;;;;;;;;;13.99;99.86;99263.34;135663;1278;22581;-60
2023/04/17 15:26:58;;;;;;;;;;;;;;;14.02;99.83;99261.77;135638;1254;22538;-62
2023/04/17 15:30:07;;;;;;;;;;;;;;;14.01;99.76;99262.69;135717;1278;25390;-63
2023/04/17 15:33:11;;;;;;;;;;;;;;;14.01;99.62;99261.98;135672;1278;22516;-63
2023/04/17 15:36:13;;;;;;;;;;;;;;;14.05;100.00;99257.16;135640;1278;22527;-64
2023/04/17 15:39:16;;;;;;;;;;;;;;;14.06;99.77;99259.18;135707;1278;22527;-64
2023/04/17 15:42:18;;;;;;;;;;;;;;;14.02;100.00;99260.85;135686;1278;22581;-67
2023/04/17 15:45:21;;;;;;;;;;;;;;;14.14;99.87;99260.95;135710;1278;22505;-64
2023/04/17 15:48:23;;;;;;;;;;;;;;;14.17;100.00;99257.52;135691;1278;22511;-63
2023/04/17 15:51:27;;;;;;;;;;;;;;;14.24;100.00;99260.27;135659;1278;22512;-65